sensor_id;sensor_type;location;lat;lon;timestamp;temperature;humidity
65374;SHT31;52070;53.760;9.678;2023-04-03T00:02:02;-0.66;83.45
65374;SHT31;52070;53.760;9.678;2023-04-03T00:04:29;-0.71;83.49
65374;SHT31;52070;53.760;9.678;2023-04-03T00:06:57;-0.76;83.49
65374;SHT31;52070;53.760;9.678;2023-04-03T00:09:24;-0.74;83.50
65374;SHT31;52070;53.760;9.678;2023-04-03T00:11:51;-0.78;83.54
65374;SHT31;52070;53.760;9.678;2023-04-03T00:14:18;-0.83;83.47
65374;SHT31;52070;53.760;9.678;2023-04-03T00:16:45;-0.87;83.45
65374;SHT31;52070;53.760;9.678;2023-04-03T00:19:12;-0.88;83.56
65374;SHT31;52070;53.760;9.678;2023-04-03T00:21:39;-0.91;83.56
65374;SHT31;52070;53.760;9.678;2023-04-03T00:24:08;-0.94;83.35
65374;SHT31;52070;53.760;9.678;2023-04-03T00:26:35;-0.94;83.53
65374;SHT31;52070;53.760;9.678;2023-04-03T00:29:02;-0.95;83.77
65374;SHT31;52070;53.760;9.678;2023-04-03T00:31:29;-0.98;83.94
65374;SHT31;52070;53.760;9.678;2023-04-03T00:33:56;-0.99;84.00
65374;SHT31;52070;53.760;9.678;2023-04-03T00:36:23;-1.01;83.89
65374;SHT31;52070;53.760;9.678;2023-04-03T00:38:50;-1.02;83.99
65374;SHT31;52070;53.760;9.678;2023-04-03T00:41:18;-1.02;84.10
65374;SHT31;52070;53.760;9.678;2023-04-03T00:43:45;-1.04;84.27
65374;SHT31;52070;53.760;9.678;2023-04-03T00:46:12;-1.05;84.46
65374;SHT31;52070;53.760;9.678;2023-04-03T00:48:41;-1.09;84.52
65374;SHT31;52070;53.760;9.678;2023-04-03T00:51:11;-1.09;84.48
65374;SHT31;52070;53.760;9.678;2023-04-03T00:53:43;-1.09;84.66
65374;SHT31;52070;53.760;9.678;2023-04-03T00:56:14;-1.09;84.80
65374;SHT31;52070;53.760;9.678;2023-04-03T00:58:46;-1.05;84.85
65374;SHT31;52070;53.760;9.678;2023-04-03T01:01:18;-1.07;85.02
65374;SHT31;52070;53.760;9.678;2023-04-03T01:03:47;-1.05;85.18
65374;SHT31;52070;53.760;9.678;2023-04-03T01:06:16;-1.07;85.21
65374;SHT31;52070;53.760;9.678;2023-04-03T01:08:44;-1.12;85.26
65374;SHT31;52070;53.760;9.678;2023-04-03T01:11:12;-1.15;85.26
65374;SHT31;52070;53.760;9.678;2023-04-03T01:13:39;-1.22;85.07
65374;SHT31;52070;53.760;9.678;2023-04-03T01:16:08;-1.24;85.02
65374;SHT31;52070;53.760;9.678;2023-04-03T01:18:37;-1.28;84.88
65374;SHT31;52070;53.760;9.678;2023-04-03T01:21:28;-1.32;84.81
65374;SHT31;52070;53.760;9.678;2023-04-03T01:24:11;-1.29;84.96
65374;SHT31;52070;53.760;9.678;2023-04-03T01:26:40;-1.27;85.21
65374;SHT31;52070;53.760;9.678;2023-04-03T01:29:07;-1.27;85.32
65374;SHT31;52070;53.760;9.678;2023-04-03T01:31:46;-1.29;85.52
65374;SHT31;52070;53.760;9.678;2023-04-03T01:34:13;-1.29;85.66
65374;SHT31;52070;53.760;9.678;2023-04-03T01:36:40;-1.36;85.71
65374;SHT31;52070;53.760;9.678;2023-04-03T01:39:08;-1.39;85.80
65374;SHT31;52070;53.760;9.678;2023-04-03T01:41:35;-1.42;85.91
65374;SHT31;52070;53.760;9.678;2023-04-03T01:44:02;-1.43;85.93
65374;SHT31;52070;53.760;9.678;2023-04-03T01:46:30;-1.43;85.89
65374;SHT31;52070;53.760;9.678;2023-04-03T01:48:58;-1.46;85.97
65374;SHT31;52070;53.760;9.678;2023-04-03T01:51:25;-1.48;86.24
65374;SHT31;52070;53.760;9.678;2023-04-03T01:53:52;-1.48;86.38
65374;SHT31;52070;53.760;9.678;2023-04-03T01:56:19;-1.48;86.55
65374;SHT31;52070;53.760;9.678;2023-04-03T01:58:47;-1.53;86.56
65374;SHT31;52070;53.760;9.678;2023-04-03T02:01:13;-1.51;86.48
65374;SHT31;52070;53.760;9.678;2023-04-03T02:03:40;-1.51;86.57
65374;SHT31;52070;53.760;9.678;2023-04-03T02:06:09;-1.51;86.61
65374;SHT31;52070;53.760;9.678;2023-04-03T02:08:35;-1.53;86.63
65374;SHT31;52070;53.760;9.678;2023-04-03T02:11:02;-1.59;86.71
65374;SHT31;52070;53.760;9.678;2023-04-03T02:13:29;-1.58;86.73
65374;SHT31;52070;53.760;9.678;2023-04-03T02:15:56;-1.63;86.77
65374;SHT31;52070;53.760;9.678;2023-04-03T02:18:24;-1.64;86.73
65374;SHT31;52070;53.760;9.678;2023-04-03T02:20:51;-1.63;86.71
65374;SHT31;52070;53.760;9.678;2023-04-03T02:23:20;-1.64;86.75
65374;SHT31;52070;53.760;9.678;2023-04-03T02:25:47;-1.60;86.90
65374;SHT31;52070;53.760;9.678;2023-04-03T02:28:14;-1.64;87.05
65374;SHT31;52070;53.760;9.678;2023-04-03T02:30:41;-1.67;87.04
65374;SHT31;52070;53.760;9.678;2023-04-03T02:33:08;-1.72;87.04
65374;SHT31;52070;53.760;9.678;2023-04-03T02:35:35;-1.73;86.92
65374;SHT31;52070;53.760;9.678;2023-04-03T02:38:02;-1.74;86.72
65374;SHT31;52070;53.760;9.678;2023-04-03T02:40:30;-1.76;86.72
65374;SHT31;52070;53.760;9.678;2023-04-03T02:42:57;-1.79;86.62
65374;SHT31;52070;53.760;9.678;2023-04-03T02:45:24;-1.79;86.65
65374;SHT31;52070;53.760;9.678;2023-04-03T02:47:51;-1.77;86.83
65374;SHT31;52070;53.760;9.678;2023-04-03T02:50:18;-1.76;86.93
65374;SHT31;52070;53.760;9.678;2023-04-03T02:52:45;-1.79;87.08
65374;SHT31;52070;53.760;9.678;2023-04-03T02:55:14;-1.77;87.21
65374;SHT31;52070;53.760;9.678;2023-04-03T02:57:42;-1.79;87.23
65374;SHT31;52070;53.760;9.678;2023-04-03T03:00:10;-1.80;87.23
65374;SHT31;52070;53.760;9.678;2023-04-03T03:02:37;-1.82;87.33
65374;SHT31;52070;53.760;9.678;2023-04-03T03:05:04;-1.84;87.37
65374;SHT31;52070;53.760;9.678;2023-04-03T03:07:31;-1.86;87.53
65374;SHT31;52070;53.760;9.678;2023-04-03T03:09:58;-1.87;87.60
65374;SHT31;52070;53.760;9.678;2023-04-03T03:12:25;-1.89;87.54
65374;SHT31;52070;53.760;9.678;2023-04-03T03:14:53;-1.91;87.51
65374;SHT31;52070;53.760;9.678;2023-04-03T03:17:20;-1.93;87.54
65374;SHT31;52070;53.760;9.678;2023-04-03T03:19:47;-1.98;87.47
65374;SHT31;52070;53.760;9.678;2023-04-03T03:22:16;-1.96;87.52
65374;SHT31;52070;53.760;9.678;2023-04-03T03:24:42;-1.96;87.49
65374;SHT31;52070;53.760;9.678;2023-04-03T03:27:09;-1.94;87.60
65374;SHT31;52070;53.760;9.678;2023-04-03T03:29:37;-1.89;87.77
65374;SHT31;52070;53.760;9.678;2023-04-03T03:32:06;-1.87;87.92
65374;SHT31;52070;53.760;9.678;2023-04-03T03:34:33;-1.87;87.97
65374;SHT31;52070;53.760;9.678;2023-04-03T03:36:59;-1.94;87.83
65374;SHT31;52070;53.760;9.678;2023-04-03T03:39:26;-1.96;87.87
65374;SHT31;52070;53.760;9.678;2023-04-03T03:41:53;-2.00;87.87
65374;SHT31;52070;53.760;9.678;2023-04-03T03:44:20;-2.04;87.83
65374;SHT31;52070;53.760;9.678;2023-04-03T03:46:47;-2.06;87.82
65374;SHT31;52070;53.760;9.678;2023-04-03T03:49:15;-2.10;87.91
65374;SHT31;52070;53.760;9.678;2023-04-03T03:51:42;-2.11;88.04
65374;SHT31;52070;53.760;9.678;2023-04-03T03:54:09;-2.11;87.95
65374;SHT31;52070;53.760;9.678;2023-04-03T03:56:36;-2.14;87.91
65374;SHT31;52070;53.760;9.678;2023-04-03T03:59:03;-2.13;88.05
65374;SHT31;52070;53.760;9.678;2023-04-03T04:01:30;-2.15;88.13
65374;SHT31;52070;53.760;9.678;2023-04-03T04:03:57;-2.14;88.27
65374;SHT31;52070;53.760;9.678;2023-04-03T04:06:26;-2.14;88.36
65374;SHT31;52070;53.760;9.678;2023-04-03T04:08:53;-2.20;88.37
65374;SHT31;52070;53.760;9.678;2023-04-03T04:11:20;-2.21;88.21
65374;SHT31;52070;53.760;9.678;2023-04-03T04:13:47;-2.27;88.20
65374;SHT31;52070;53.760;9.678;2023-04-03T04:16:14;-2.31;88.17
65374;SHT31;52070;53.760;9.678;2023-04-03T04:18:43;-2.28;88.05
65374;SHT31;52070;53.760;9.678;2023-04-03T04:21:10;-2.30;88.18
65374;SHT31;52070;53.760;9.678;2023-04-03T04:23:38;-2.28;88.31
65374;SHT31;52070;53.760;9.678;2023-04-03T04:26:05;-2.31;88.35
65374;SHT31;52070;53.760;9.678;2023-04-03T04:28:32;-2.30;88.41
65374;SHT31;52070;53.760;9.678;2023-04-03T04:30:59;-2.34;88.48
65374;SHT31;52070;53.760;9.678;2023-04-03T04:33:26;-2.34;88.54
65374;SHT31;52070;53.760;9.678;2023-04-03T04:35:52;-2.34;88.58
65374;SHT31;52070;53.760;9.678;2023-04-03T04:38:20;-2.37;88.57
65374;SHT31;52070;53.760;9.678;2023-04-03T04:40:48;-2.38;88.54
65374;SHT31;52070;53.760;9.678;2023-04-03T04:43:16;-2.38;88.61
65374;SHT31;52070;53.760;9.678;2023-04-03T04:45:43;-2.41;88.51
65374;SHT31;52070;53.760;9.678;2023-04-03T04:48:10;-2.44;88.38
65374;SHT31;52070;53.760;9.678;2023-04-03T04:50:37;-2.45;88.28
65374;SHT31;52070;53.760;9.678;2023-04-03T04:53:04;-2.48;88.28
65374;SHT31;52070;53.760;9.678;2023-04-03T04:55:31;-2.48;88.30
65374;SHT31;52070;53.760;9.678;2023-04-03T04:57:59;-2.51;88.33
65374;SHT31;52070;53.760;9.678;2023-04-03T05:00:26;-2.49;88.17
65374;SHT31;52070;53.760;9.678;2023-04-03T05:02:53;-2.52;88.10
65374;SHT31;52070;53.760;9.678;2023-04-03T05:05:20;-2.54;88.01
65374;SHT31;52070;53.760;9.678;2023-04-03T05:07:47;-2.55;87.85
65374;SHT31;52070;53.760;9.678;2023-04-03T05:10:14;-2.55;87.87
65374;SHT31;52070;53.760;9.678;2023-04-03T05:12:41;-2.55;87.94
65374;SHT31;52070;53.760;9.678;2023-04-03T05:15:10;-2.52;88.03
65374;SHT31;52070;53.760;9.678;2023-04-03T05:17:37;-2.51;88.11
65374;SHT31;52070;53.760;9.678;2023-04-03T05:20:05;-2.57;88.18
65374;SHT31;52070;53.760;9.678;2023-04-03T05:22:32;-2.52;88.16
65374;SHT31;52070;53.760;9.678;2023-04-03T05:24:59;-2.48;88.29
65374;SHT31;52070;53.760;9.678;2023-04-03T05:27:26;-2.37;88.50
65374;SHT31;52070;53.760;9.678;2023-04-03T05:29:54;-2.37;88.72
65374;SHT31;52070;53.760;9.678;2023-04-03T05:32:23;-2.35;88.79
65374;SHT31;52070;53.760;9.678;2023-04-03T05:34:50;-2.37;88.85
65374;SHT31;52070;53.760;9.678;2023-04-03T05:37:17;-2.34;88.90
65374;SHT31;52070;53.760;9.678;2023-04-03T05:39:44;-2.31;89.00
65374;SHT31;52070;53.760;9.678;2023-04-03T05:42:12;-2.27;89.07
65374;SHT31;52070;53.760;9.678;2023-04-03T05:44:39;-2.23;89.17
65374;SHT31;52070;53.760;9.678;2023-04-03T05:47:06;-2.15;89.30
65374;SHT31;52070;53.760;9.678;2023-04-03T05:49:37;-2.11;89.36
65374;SHT31;52070;53.760;9.678;2023-04-03T05:52:06;-2.10;89.47
65374;SHT31;52070;53.760;9.678;2023-04-03T05:54:33;-2.01;89.55
65374;SHT31;52070;53.760;9.678;2023-04-03T05:57:00;-1.96;89.66
65374;SHT31;52070;53.760;9.678;2023-04-03T05:59:27;-1.90;89.76
65374;SHT31;52070;53.760;9.678;2023-04-03T06:01:54;-1.82;89.83
65374;SHT31;52070;53.760;9.678;2023-04-03T06:04:21;-1.74;89.88
65374;SHT31;52070;53.760;9.678;2023-04-03T06:06:51;-1.59;89.89
65374;SHT31;52070;53.760;9.678;2023-04-03T06:09:20;-1.27;90.01
65374;SHT31;52070;53.760;9.678;2023-04-03T06:11:47;-1.13;90.14
65374;SHT31;52070;53.760;9.678;2023-04-03T06:14:14;-1.08;90.19
65374;SHT31;52070;53.760;9.678;2023-04-03T06:16:41;-0.97;90.16
65374;SHT31;52070;53.760;9.678;2023-04-03T06:19:09;-0.83;90.20
65374;SHT31;52070;53.760;9.678;2023-04-03T06:21:37;-0.70;90.22
65374;SHT31;52070;53.760;9.678;2023-04-03T06:24:06;-0.61;90.11
65374;SHT31;52070;53.760;9.678;2023-04-03T06:26:34;-0.44;90.04
65374;SHT31;52070;53.760;9.678;2023-04-03T06:29:01;-0.37;89.93
65374;SHT31;52070;53.760;9.678;2023-04-03T06:31:28;-0.24;89.79
65374;SHT31;52070;53.760;9.678;2023-04-03T06:33:55;-0.09;89.65
65374;SHT31;52070;53.760;9.678;2023-04-03T06:36:22;-0.01;89.44
65374;SHT31;52070;53.760;9.678;2023-04-03T06:38:49;0.09;89.18
65374;SHT31;52070;53.760;9.678;2023-04-03T06:41:17;0.21;88.86
65374;SHT31;52070;53.760;9.678;2023-04-03T06:43:44;0.38;88.60
65374;SHT31;52070;53.760;9.678;2023-04-03T06:46:14;0.44;88.23
65374;SHT31;52070;53.760;9.678;2023-04-03T06:48:42;0.46;88.00
65374;SHT31;52070;53.760;9.678;2023-04-03T06:51:17;0.62;87.80
65374;SHT31;52070;53.760;9.678;2023-04-03T06:53:44;0.77;87.48
65374;SHT31;52070;53.760;9.678;2023-04-03T06:56:12;0.89;87.06
65374;SHT31;52070;53.760;9.678;2023-04-03T06:58:41;0.92;86.71
65374;SHT31;52070;53.760;9.678;2023-04-03T07:01:09;1.08;86.52
65374;SHT31;52070;53.760;9.678;2023-04-03T07:03:36;1.24;86.09
65374;SHT31;52070;53.760;9.678;2023-04-03T07:06:04;1.27;85.80
65374;SHT31;52070;53.760;9.678;2023-04-03T07:08:33;1.40;85.67
65374;SHT31;52070;53.760;9.678;2023-04-03T07:11:00;1.57;85.43
65374;SHT31;52070;53.760;9.678;2023-04-03T07:13:27;1.67;84.84
65374;SHT31;52070;53.760;9.678;2023-04-03T07:15:55;1.71;84.40
65374;SHT31;52070;53.760;9.678;2023-04-03T07:18:23;1.83;83.92
65374;SHT31;52070;53.760;9.678;2023-04-03T07:20:50;2.05;82.45
65374;SHT31;52070;53.760;9.678;2023-04-03T07:23:17;2.15;82.00
65374;SHT31;52070;53.760;9.678;2023-04-03T07:25:44;2.20;81.82
65374;SHT31;52070;53.760;9.678;2023-04-03T07:28:12;2.37;81.13
65374;SHT31;52070;53.760;9.678;2023-04-03T07:30:43;2.37;80.89
65374;SHT31;52070;53.760;9.678;2023-04-03T07:33:12;2.57;80.44
65374;SHT31;52070;53.760;9.678;2023-04-03T07:35:40;2.60;80.02
65374;SHT31;52070;53.760;9.678;2023-04-03T07:38:08;2.67;80.06
65374;SHT31;52070;53.760;9.678;2023-04-03T07:40:35;2.87;79.51
65374;SHT31;52070;53.760;9.678;2023-04-03T07:43:02;2.97;79.21
65374;SHT31;52070;53.760;9.678;2023-04-03T07:45:29;3.04;78.59
65374;SHT31;52070;53.760;9.678;2023-04-03T07:47:56;3.11;77.94
65374;SHT31;52070;53.760;9.678;2023-04-03T07:50:25;3.18;77.09
65374;SHT31;52070;53.760;9.678;2023-04-03T07:52:52;3.31;76.52
65374;SHT31;52070;53.760;9.678;2023-04-03T07:55:20;3.39;75.95
65374;SHT31;52070;53.760;9.678;2023-04-03T07:57:47;3.56;74.80
65374;SHT31;52070;53.760;9.678;2023-04-03T08:00:14;3.76;73.68
65374;SHT31;52070;53.760;9.678;2023-04-03T08:02:43;3.86;72.61
65374;SHT31;52070;53.760;9.678;2023-04-03T08:05:16;3.91;71.67
65374;SHT31;52070;53.760;9.678;2023-04-03T08:07:44;3.93;71.86
65374;SHT31;52070;53.760;9.678;2023-04-03T08:10:12;4.09;69.73
65374;SHT31;52070;53.760;9.678;2023-04-03T08:12:39;4.21;67.88
65374;SHT31;52070;53.760;9.678;2023-04-03T08:15:07;4.37;67.77
65374;SHT31;52070;53.760;9.678;2023-04-03T08:17:35;4.37;67.54
65374;SHT31;52070;53.760;9.678;2023-04-03T08:20:02;4.45;66.59
65374;SHT31;52070;53.760;9.678;2023-04-03T08:22:30;4.51;67.26
65374;SHT31;52070;53.760;9.678;2023-04-03T08:24:58;4.62;67.38
65374;SHT31;52070;53.760;9.678;2023-04-03T08:27:27;4.65;66.51
65374;SHT31;52070;53.760;9.678;2023-04-03T08:29:54;4.71;66.07
65374;SHT31;52070;53.760;9.678;2023-04-03T08:32:21;4.79;65.21
65374;SHT31;52070;53.760;9.678;2023-04-03T08:34:48;4.82;65.07
65374;SHT31;52070;53.760;9.678;2023-04-03T08:37:15;4.84;64.54
65374;SHT31;52070;53.760;9.678;2023-04-03T08:39:43;4.95;63.15
65374;SHT31;52070;53.760;9.678;2023-04-03T08:42:17;4.96;59.94
65374;SHT31;52070;53.760;9.678;2023-04-03T08:44:47;4.98;59.05
65374;SHT31;52070;53.760;9.678;2023-04-03T08:47:18;4.98;59.84
65374;SHT31;52070;53.760;9.678;2023-04-03T08:49:49;5.02;58.71
65374;SHT31;52070;53.760;9.678;2023-04-03T08:52:17;5.06;61.65
65374;SHT31;52070;53.760;9.678;2023-04-03T08:54:49;5.26;60.02
65374;SHT31;52070;53.760;9.678;2023-04-03T08:57:22;5.37;61.77
65374;SHT31;52070;53.760;9.678;2023-04-03T08:59:51;5.46;62.39
65374;SHT31;52070;53.760;9.678;2023-04-03T09:02:25;5.57;58.27
65374;SHT31;52070;53.760;9.678;2023-04-03T09:04:53;5.69;58.48
65374;SHT31;52070;53.760;9.678;2023-04-03T09:07:25;5.71;58.87
65374;SHT31;52070;53.760;9.678;2023-04-03T09:09:59;5.63;58.59
65374;SHT31;52070;53.760;9.678;2023-04-03T09:12:34;5.59;56.11
65374;SHT31;52070;53.760;9.678;2023-04-03T09:15:10;5.67;56.03
65374;SHT31;52070;53.760;9.678;2023-04-03T09:17:49;5.71;57.25
65374;SHT31;52070;53.760;9.678;2023-04-03T09:20:25;5.77;55.48
65374;SHT31;52070;53.760;9.678;2023-04-03T09:22:53;5.80;56.35
65374;SHT31;52070;53.760;9.678;2023-04-03T09:25:23;5.97;57.32
65374;SHT31;52070;53.760;9.678;2023-04-03T09:27:52;5.98;54.09
65374;SHT31;52070;53.760;9.678;2023-04-03T09:30:20;5.98;53.17
65374;SHT31;52070;53.760;9.678;2023-04-03T09:32:51;5.94;51.58
65374;SHT31;52070;53.760;9.678;2023-04-03T09:35:21;5.91;51.81
65374;SHT31;52070;53.760;9.678;2023-04-03T09:37:49;5.93;52.68
65374;SHT31;52070;53.760;9.678;2023-04-03T09:40:32;6.12;52.51
65374;SHT31;52070;53.760;9.678;2023-04-03T09:43:19;6.42;51.70
65374;SHT31;52070;53.760;9.678;2023-04-03T09:45:48;6.68;53.58
65374;SHT31;52070;53.760;9.678;2023-04-03T09:48:18;6.87;51.58
65374;SHT31;52070;53.760;9.678;2023-04-03T09:50:57;7.21;53.07
65374;SHT31;52070;53.760;9.678;2023-04-03T09:53:31;7.27;50.12
65374;SHT31;52070;53.760;9.678;2023-04-03T09:56:00;7.50;50.26
65374;SHT31;52070;53.760;9.678;2023-04-03T09:58:31;7.58;45.97
65374;SHT31;52070;53.760;9.678;2023-04-03T10:01:01;7.95;49.14
65374;SHT31;52070;53.760;9.678;2023-04-03T10:03:31;8.33;48.15
65374;SHT31;52070;53.760;9.678;2023-04-03T10:05:58;8.23;45.92
65374;SHT31;52070;53.760;9.678;2023-04-03T10:08:28;8.13;46.74
65374;SHT31;52070;53.760;9.678;2023-04-03T10:11:07;8.45;49.76
65374;SHT31;52070;53.760;9.678;2023-04-03T10:13:50;8.77;48.31
65374;SHT31;52070;53.760;9.678;2023-04-03T10:16:18;8.91;45.03
65374;SHT31;52070;53.760;9.678;2023-04-03T10:18:54;9.01;44.71
65374;SHT31;52070;53.760;9.678;2023-04-03T10:21:30;9.22;47.32
65374;SHT31;52070;53.760;9.678;2023-04-03T10:24:07;9.66;50.68
65374;SHT31;52070;53.760;9.678;2023-04-03T10:26:41;10.06;50.36
65374;SHT31;52070;53.760;9.678;2023-04-03T10:29:21;10.41;44.60
65374;SHT31;52070;53.760;9.678;2023-04-03T10:31:56;10.64;43.53
65374;SHT31;52070;53.760;9.678;2023-04-03T10:34:28;9.97;41.40
65374;SHT31;52070;53.760;9.678;2023-04-03T10:37:01;9.53;42.40
65374;SHT31;52070;53.760;9.678;2023-04-03T10:39:34;9.32;43.26
65374;SHT31;52070;53.760;9.678;2023-04-03T10:42:10;9.36;44.37
65374;SHT31;52070;53.760;9.678;2023-04-03T10:44:57;8.85;44.65
65374;SHT31;52070;53.760;9.678;2023-04-03T10:47:32;8.37;44.34
65374;SHT31;52070;53.760;9.678;2023-04-03T10:50:15;8.01;44.90
65374;SHT31;52070;53.760;9.678;2023-04-03T10:52:52;7.74;46.64
65374;SHT31;52070;53.760;9.678;2023-04-03T10:55:28;8.29;47.40
65374;SHT31;52070;53.760;9.678;2023-04-03T10:57:59;8.53;45.57
65374;SHT31;52070;53.760;9.678;2023-04-03T11:00:33;8.73;44.01
65374;SHT31;52070;53.760;9.678;2023-04-03T11:03:05;8.35;44.63
65374;SHT31;52070;53.760;9.678;2023-04-03T11:05:37;8.01;45.50
65374;SHT31;52070;53.760;9.678;2023-04-03T11:08:12;7.95;47.95
65374;SHT31;52070;53.760;9.678;2023-04-03T11:10:43;8.28;47.79
65374;SHT31;52070;53.760;9.678;2023-04-03T11:13:13;8.73;46.41
65374;SHT31;52070;53.760;9.678;2023-04-03T11:15:43;8.73;45.27
65374;SHT31;52070;53.760;9.678;2023-04-03T11:18:14;8.56;45.83
65374;SHT31;52070;53.760;9.678;2023-04-03T11:20:53;8.15;44.53
65374;SHT31;52070;53.760;9.678;2023-04-03T11:23:25;8.36;46.58
65374;SHT31;52070;53.760;9.678;2023-04-03T11:25:56;8.12;46.78
65374;SHT31;52070;53.760;9.678;2023-04-03T11:28:26;8.74;46.21
65374;SHT31;52070;53.760;9.678;2023-04-03T11:31:02;8.49;45.25
65374;SHT31;52070;53.760;9.678;2023-04-03T11:33:37;8.21;46.53
65374;SHT31;52070;53.760;9.678;2023-04-03T11:36:11;8.10;47.56
65374;SHT31;52070;53.760;9.678;2023-04-03T11:38:43;8.06;47.06
65374;SHT31;52070;53.760;9.678;2023-04-03T11:41:12;8.09;47.83
65374;SHT31;52070;53.760;9.678;2023-04-03T11:43:42;8.29;47.31
65374;SHT31;52070;53.760;9.678;2023-04-03T11:46:10;8.35;49.58
65374;SHT31;52070;53.760;9.678;2023-04-03T11:48:49;8.43;50.74
65374;SHT31;52070;53.760;9.678;2023-04-03T11:51:39;8.53;48.50
65374;SHT31;52070;53.760;9.678;2023-04-03T11:54:35;8.47;47.88
65374;SHT31;52070;53.760;9.678;2023-04-03T12:09:29;7.85;50.27
65374;SHT31;52070;53.760;9.678;2023-04-03T12:11:57;7.91;50.58
65374;SHT31;52070;53.760;9.678;2023-04-03T12:14:26;8.87;49.29
65374;SHT31;52070;53.760;9.678;2023-04-03T12:16:55;9.81;48.56
65374;SHT31;52070;53.760;9.678;2023-04-03T12:19:33;10.40;46.21
65374;SHT31;52070;53.760;9.678;2023-04-03T12:22:18;10.99;43.42
65374;SHT31;52070;53.760;9.678;2023-04-03T12:24:48;11.38;42.01
65374;SHT31;52070;53.760;9.678;2023-04-03T12:27:30;11.82;40.34
65374;SHT31;52070;53.760;9.678;2023-04-03T12:30:11;12.23;38.81
65374;SHT31;52070;53.760;9.678;2023-04-03T12:32:49;12.34;42.31
65374;SHT31;52070;53.760;9.678;2023-04-03T12:35:22;11.58;40.42
65374;SHT31;52070;53.760;9.678;2023-04-03T12:38:30;10.75;41.39
65374;SHT31;52070;53.760;9.678;2023-04-03T12:41:18;10.85;41.93
65374;SHT31;52070;53.760;9.678;2023-04-03T12:44:08;11.84;46.09
65374;SHT31;52070;53.760;9.678;2023-04-03T12:46:38;11.47;39.63
65374;SHT31;52070;53.760;9.678;2023-04-03T12:49:20;10.85;41.22
65374;SHT31;52070;53.760;9.678;2023-04-03T12:51:49;10.24;43.15
65374;SHT31;52070;53.760;9.678;2023-04-03T12:54:19;10.16;41.97
65374;SHT31;52070;53.760;9.678;2023-04-03T12:56:49;9.89;44.39
65374;SHT31;52070;53.760;9.678;2023-04-03T12:59:18;9.68;43.63
65374;SHT31;52070;53.760;9.678;2023-04-03T13:01:53;9.36;45.72
65374;SHT31;52070;53.760;9.678;2023-04-03T13:04:21;9.24;44.03
65374;SHT31;52070;53.760;9.678;2023-04-03T13:07:37;9.93;42.79
65374;SHT31;52070;53.760;9.678;2023-04-03T13:11:52;11.31;40.13
65374;SHT31;52070;53.760;9.678;2023-04-03T13:14:49;10.91;40.98
65374;SHT31;52070;53.760;9.678;2023-04-03T13:17:38;10.43;41.20
65374;SHT31;52070;53.760;9.678;2023-04-03T13:20:15;9.82;42.88
65374;SHT31;52070;53.760;9.678;2023-04-03T13:22:48;9.39;44.64
65374;SHT31;52070;53.760;9.678;2023-04-03T13:25:17;9.17;45.77
65374;SHT31;52070;53.760;9.678;2023-04-03T13:27:46;9.20;48.05
65374;SHT31;52070;53.760;9.678;2023-04-03T13:30:25;9.48;46.08
65374;SHT31;52070;53.760;9.678;2023-04-03T13:32:53;9.62;44.08
65374;SHT31;52070;53.760;9.678;2023-04-03T13:35:32;9.96;44.01
65374;SHT31;52070;53.760;9.678;2023-04-03T13:38:04;10.78;42.94
65374;SHT31;52070;53.760;9.678;2023-04-03T13:40:31;11.72;41.17
65374;SHT31;52070;53.760;9.678;2023-04-03T13:43:01;11.86;40.32
65374;SHT31;52070;53.760;9.678;2023-04-03T13:45:32;11.87;41.64
65374;SHT31;52070;53.760;9.678;2023-04-03T13:48:09;11.36;38.42
65374;SHT31;52070;53.760;9.678;2023-04-03T13:50:52;10.87;39.99
65374;SHT31;52070;53.760;9.678;2023-04-03T13:53:20;10.46;42.60
65374;SHT31;52070;53.760;9.678;2023-04-03T13:56:00;10.20;42.79
65374;SHT31;52070;53.760;9.678;2023-04-03T13:58:32;9.82;43.64
65374;SHT31;52070;53.760;9.678;2023-04-03T14:01:08;9.38;45.57
65374;SHT31;52070;53.760;9.678;2023-04-03T14:03:42;9.11;44.88
65374;SHT31;52070;53.760;9.678;2023-04-03T14:06:11;9.08;44.92
65374;SHT31;52070;53.760;9.678;2023-04-03T14:08:39;9.28;46.12
65374;SHT31;52070;53.760;9.678;2023-04-03T14:11:13;9.99;46.58
65374;SHT31;52070;53.760;9.678;2023-04-03T14:13:41;10.85;43.54
65374;SHT31;52070;53.760;9.678;2023-04-03T14:16:12;11.62;43.36
65374;SHT31;52070;53.760;9.678;2023-04-03T14:18:40;12.16;39.82
65374;SHT31;52070;53.760;9.678;2023-04-03T14:21:08;12.34;39.81
65374;SHT31;52070;53.760;9.678;2023-04-03T14:23:35;12.72;40.33
65374;SHT31;52070;53.760;9.678;2023-04-03T14:26:02;13.03;37.29
65374;SHT31;52070;53.760;9.678;2023-04-03T14:28:31;13.10;36.21
65374;SHT31;52070;53.760;9.678;2023-04-03T14:30:58;12.44;40.25
65374;SHT31;52070;53.760;9.678;2023-04-03T14:33:26;11.79;41.31
65374;SHT31;52070;53.760;9.678;2023-04-03T14:35:56;11.05;41.23
65374;SHT31;52070;53.760;9.678;2023-04-03T14:38:25;10.63;43.32
65374;SHT31;52070;53.760;9.678;2023-04-03T14:40:53;10.36;44.29
65374;SHT31;52070;53.760;9.678;2023-04-03T14:43:20;10.12;43.96
65374;SHT31;52070;53.760;9.678;2023-04-03T14:45:48;9.61;45.60
65374;SHT31;52070;53.760;9.678;2023-04-03T14:48:19;9.43;46.48
65374;SHT31;52070;53.760;9.678;2023-04-03T14:50:48;9.42;46.07
65374;SHT31;52070;53.760;9.678;2023-04-03T14:53:15;9.97;47.41
65374;SHT31;52070;53.760;9.678;2023-04-03T14:55:45;10.82;44.63
65374;SHT31;52070;53.760;9.678;2023-04-03T14:58:13;11.46;43.21
65374;SHT31;52070;53.760;9.678;2023-04-03T15:00:42;12.12;41.05
65374;SHT31;52070;53.760;9.678;2023-04-03T15:03:14;12.69;38.16
65374;SHT31;52070;53.760;9.678;2023-04-03T15:05:42;12.95;38.45
65374;SHT31;52070;53.760;9.678;2023-04-03T15:08:18;13.50;38.23
65374;SHT31;52070;53.760;9.678;2023-04-03T15:10:46;13.49;35.83
65374;SHT31;52070;53.760;9.678;2023-04-03T15:13:14;12.64;37.13
65374;SHT31;52070;53.760;9.678;2023-04-03T15:15:41;11.44;38.32
65374;SHT31;52070;53.760;9.678;2023-04-03T15:18:14;10.69;41.07
65374;SHT31;52070;53.760;9.678;2023-04-03T15:20:42;10.20;42.10
65374;SHT31;52070;53.760;9.678;2023-04-03T15:23:10;9.73;43.85
65374;SHT31;52070;53.760;9.678;2023-04-03T15:25:39;9.32;44.93
65374;SHT31;52070;53.760;9.678;2023-04-03T15:28:08;9.12;46.15
65374;SHT31;52070;53.760;9.678;2023-04-03T15:30:38;9.15;47.06
65374;SHT31;52070;53.760;9.678;2023-04-03T15:33:06;9.25;44.83
65374;SHT31;52070;53.760;9.678;2023-04-03T15:35:33;9.32;49.19
65374;SHT31;52070;53.760;9.678;2023-04-03T15:38:00;9.43;45.97
65374;SHT31;52070;53.760;9.678;2023-04-03T15:40:27;10.06;46.84
65374;SHT31;52070;53.760;9.678;2023-04-03T15:42:55;10.58;43.98
65374;SHT31;52070;53.760;9.678;2023-04-03T15:45:22;10.97;41.75
65374;SHT31;52070;53.760;9.678;2023-04-03T15:47:49;11.22;42.22
65374;SHT31;52070;53.760;9.678;2023-04-03T15:50:17;11.31;41.28
65374;SHT31;52070;53.760;9.678;2023-04-03T15:52:44;11.55;41.66
65374;SHT31;52070;53.760;9.678;2023-04-03T15:55:11;11.80;39.59
65374;SHT31;52070;53.760;9.678;2023-04-03T15:57:38;11.63;39.96
65374;SHT31;52070;53.760;9.678;2023-04-03T16:00:07;11.32;42.43
65374;SHT31;52070;53.760;9.678;2023-04-03T16:02:35;10.97;42.16
65374;SHT31;52070;53.760;9.678;2023-04-03T16:05:02;10.44;44.32
65374;SHT31;52070;53.760;9.678;2023-04-03T16:07:29;10.06;45.97
65374;SHT31;52070;53.760;9.678;2023-04-03T16:09:56;10.12;44.44